Time;durP1;ratioP1;P1;durP2;ratioP2;P2;SDS_P1;SDS_P2;PMS_P1;PMS_P2;Temp;Humidity;BMP_temperature;BMP_pressure;BME280_temperature;BME280_humidity;BME280_pressure;Samples;Min_cycle;Max_cycle;Signal;HPM_P1;HPM_P2
2022/04/20 00:00:43;;;;;;;0.50;0.50;;;;;;;;;;1850797;76;26257;-43
2022/04/20 00:03:11;;;;;;;0.65;0.65;;;;;;;;;;1856328;76;26245;-51
2022/04/20 00:05:38;;;;;;;0.40;0.40;;;;;;;;;;1857350;77;26377;-48
2022/04/20 00:08:05;;;;;;;0.50;0.50;;;;;;;;;;1856059;76;26249;-50
2022/04/20 00:10:33;;;;;;;0.42;0.42;;;;;;;;;;1844682;76;26763;-51
2022/04/20 00:13:00;;;;;;;0.50;0.50;;;;;;;;;;1856415;76;26240;-47
2022/04/20 00:15:28;;;;;;;0.35;0.35;;;;;;;;;;1856073;76;26278;-49
2022/04/20 00:17:55;;;;;;;0.68;0.68;;;;;;;;;;1857713;77;26331;-48
2022/04/20 00:20:22;;;;;;;1.00;0.57;;;;;;;;;;1857175;77;26268;-50
2022/04/20 00:22:49;;;;;;;1.37;0.60;;;;;;;;;;1857412;77;26284;-50
2022/04/20 00:25:17;;;;;;;0.47;0.45;;;;;;;;;;1874935;76;26300;-50
2022/04/20 00:27:44;;;;;;;0.50;0.50;;;;;;;;;;1843682;77;26272;-48
2022/04/20 00:30:12;;;;;;;0.40;0.40;;;;;;;;;;1845949;76;26245;-53
2022/04/20 00:32:40;;;;;;;0.60;0.60;;;;;;;;;;1857255;77;26233;-52
2022/04/20 00:35:08;;;;;;;0.50;0.50;;;;;;;;;;1850562;76;26746;-44
2022/04/20 00:37:36;;;;;;;0.50;0.50;;;;;;;;;;1862075;76;26249;-48
2022/04/20 00:40:04;;;;;;;0.93;0.50;;;;;;;;;;1857600;76;26245;-48
2022/04/20 00:42:32;;;;;;;0.55;0.42;;;;;;;;;;1856972;76;26256;-49
2022/04/20 00:44:59;;;;;;;0.50;0.50;;;;;;;;;;1856422;76;26293;-47
2022/04/20 00:47:27;;;;;;;0.40;0.40;;;;;;;;;;1876376;75;26237;-43
2022/04/20 00:49:54;;;;;;;0.40;0.40;;;;;;;;;;1862070;77;26275;-46
2022/04/20 00:52:21;;;;;;;0.50;0.50;;;;;;;;;;1856443;77;26269;-46
2022/04/20 00:54:48;;;;;;;0.53;0.53;;;;;;;;;;1859328;76;26221;-48
2022/04/20 00:57:16;;;;;;;0.50;0.50;;;;;;;;;;1861521;77;26331;-49
2022/04/20 00:59:44;;;;;;;0.50;0.50;;;;;;;;;;1866655;75;26272;-50
2022/04/20 01:02:11;;;;;;;0.40;0.40;;;;;;;;;;1857488;75;26287;-49
2022/04/20 01:04:39;;;;;;;0.50;0.50;;;;;;;;;;1860932;76;26276;-48
2022/04/20 01:07:11;;;;;;;0.50;0.50;;;;;;;;;;1863825;76;26327;-56
2022/04/20 01:09:39;;;;;;;0.50;0.50;;;;;;;;;;1863347;75;26297;-50
2022/04/20 01:12:07;;;;;;;0.50;0.50;;;;;;;;;;1860989;77;26244;-46
2022/04/20 01:14:35;;;;;;;0.62;0.50;;;;;;;;;;1863383;77;26704;-47
2022/04/20 01:17:02;;;;;;;0.50;0.50;;;;;;;;;;1863736;76;26276;-46
2022/04/20 01:19:34;;;;;;;0.50;0.50;;;;;;;;;;1864171;77;26772;-48
2022/04/20 01:22:02;;;;;;;0.42;0.42;;;;;;;;;;1865068;75;26777;-46
2022/04/20 01:24:30;;;;;;;0.75;0.62;;;;;;;;;;1857209;77;26342;-44
2022/04/20 01:26:57;;;;;;;0.85;0.50;;;;;;;;;;1852469;77;26264;-49
2022/04/20 01:29:26;;;;;;;0.40;0.40;;;;;;;;;;1856387;77;26202;-46
2022/04/20 01:31:54;;;;;;;0.50;0.50;;;;;;;;;;1850915;76;27207;-45
2022/04/20 01:34:21;;;;;;;1.40;0.50;;;;;;;;;;1857159;77;26185;-45
2022/04/20 01:36:49;;;;;;;0.40;0.40;;;;;;;;;;1863666;77;26319;-44
2022/04/20 01:39:16;;;;;;;1.22;0.50;;;;;;;;;;1863912;76;26684;-47
2022/04/20 01:41:44;;;;;;;0.45;0.45;;;;;;;;;;1862544;77;26529;-50
2022/04/20 01:44:11;;;;;;;0.50;0.50;;;;;;;;;;1863239;75;26327;-46
2022/04/20 01:46:39;;;;;;;0.60;0.57;;;;;;;;;;1858537;76;26725;-51
2022/04/20 01:49:06;;;;;;;1.25;0.40;;;;;;;;;;1856148;77;26484;-46
2022/04/20 01:51:52;;;;;;;0.40;0.40;;;;;;;;;;1848725;77;26589;-53
2022/04/20 01:54:19;;;;;;;0.70;0.70;;;;;;;;;;1849256;76;26269;-47
2022/04/20 01:56:48;;;;;;;0.50;0.50;;;;;;;;;;1856766;77;26760;-46
2022/04/20 01:59:15;;;;;;;0.40;0.40;;;;;;;;;;1856328;77;27276;-47
2022/04/20 02:04:28;;;;;;;0.30;0.30;;;;;;;;;;1853570;77;26313;-49
2022/04/20 02:06:56;;;;;;;0.88;0.50;;;;;;;;;;1866033;76;26261;-45
2022/04/20 02:09:24;;;;;;;0.53;0.53;;;;;;;;;;1837400;77;26527;-47
2022/04/20 02:11:51;;;;;;;0.40;0.40;;;;;;;;;;1850187;77;26261;-50
2022/04/20 02:14:19;;;;;;;0.50;0.50;;;;;;;;;;1852043;76;27633;-50
2022/04/20 02:16:46;;;;;;;0.40;0.40;;;;;;;;;;1857130;76;26724;-45
2022/04/20 02:19:14;;;;;;;0.42;0.42;;;;;;;;;;1857542;77;26285;-51
2022/04/20 02:21:42;;;;;;;0.50;0.50;;;;;;;;;;1857587;77;26669;-52
2022/04/20 02:24:10;;;;;;;0.53;0.53;;;;;;;;;;1856979;77;26728;-52
2022/04/20 02:26:37;;;;;;;1.30;0.80;;;;;;;;;;1852356;77;26268;-48
2022/04/20 02:29:05;;;;;;;2.60;0.50;;;;;;;;;;1857700;76;26303;-48
2022/04/20 02:31:32;;;;;;;0.50;0.50;;;;;;;;;;1845154;77;26771;-48
2022/04/20 02:33:59;;;;;;;0.40;0.40;;;;;;;;;;1841524;77;27231;-46
2022/04/20 02:36:27;;;;;;;0.50;0.50;;;;;;;;;;1856748;77;26186;-46
2022/04/20 02:38:55;;;;;;;0.40;0.40;;;;;;;;;;1857571;76;26296;-52
2022/04/20 02:41:23;;;;;;;0.30;0.30;;;;;;;;;;1863564;76;26705;-46
2022/04/20 02:43:50;;;;;;;0.50;0.50;;;;;;;;;;1857340;77;26324;-48
2022/04/20 02:46:17;;;;;;;0.40;0.40;;;;;;;;;;1852529;76;26262;-48
2022/04/20 02:48:45;;;;;;;1.00;0.50;;;;;;;;;;1842314;77;26327;-47
2022/04/20 02:51:12;;;;;;;0.50;0.50;;;;;;;;;;1843900;76;26312;-46
2022/04/20 02:53:40;;;;;;;0.50;0.50;;;;;;;;;;1835811;76;26254;-46
2022/04/20 02:56:07;;;;;;;0.42;0.42;;;;;;;;;;1831674;77;26358;-46
2022/04/20 02:58:35;;;;;;;0.47;0.47;;;;;;;;;;1828037;76;26805;-52
2022/04/20 03:01:03;;;;;;;0.60;0.60;;;;;;;;;;1845046;77;26783;-46
2022/04/20 03:03:30;;;;;;;0.47;0.47;;;;;;;;;;1847251;76;26268;-44
2022/04/20 03:05:57;;;;;;;0.50;0.50;;;;;;;;;;1840197;76;26920;-45
2022/04/20 03:08:25;;;;;;;0.40;0.40;;;;;;;;;;1843989;77;26747;-52
2022/04/20 03:10:52;;;;;;;0.45;0.45;;;;;;;;;;1837864;77;26292;-50
2022/04/20 03:13:20;;;;;;;0.53;0.53;;;;;;;;;;1834901;77;26230;-51
2022/04/20 03:15:47;;;;;;;0.60;0.60;;;;;;;;;;1848274;76;26261;-48
2022/04/20 03:18:14;;;;;;;0.50;0.50;;;;;;;;;;1847218;77;26379;-43
2022/04/20 03:20:42;;;;;;;0.50;0.50;;;;;;;;;;1847141;77;26946;-47
2022/04/20 03:23:10;;;;;;;0.42;0.42;;;;;;;;;;1847875;77;26257;-47
2022/04/20 03:25:37;;;;;;;0.50;0.50;;;;;;;;;;1845423;76;26475;-53
2022/04/20 03:28:04;;;;;;;0.40;0.40;;;;;;;;;;1848783;76;26709;-44
2022/04/20 03:30:32;;;;;;;1.75;0.60;;;;;;;;;;1843737;77;26572;-50
2022/04/20 03:32:59;;;;;;;0.50;0.50;;;;;;;;;;1848401;77;26915;-49
2022/04/20 03:35:27;;;;;;;0.40;0.40;;;;;;;;;;1844444;77;26825;-50
2022/04/20 03:37:54;;;;;;;0.68;0.68;;;;;;;;;;1847889;76;26269;-46
2022/04/20 03:40:21;;;;;;;0.30;0.30;;;;;;;;;;1847907;77;26792;-44
2022/04/20 03:42:50;;;;;;;0.50;0.50;;;;;;;;;;1846992;77;26312;-54
2022/04/20 03:45:17;;;;;;;0.40;0.40;;;;;;;;;;1848076;76;26330;-51
2022/04/20 03:47:44;;;;;;;0.60;0.60;;;;;;;;;;1843157;76;26298;-47
2022/04/20 03:50:12;;;;;;;0.50;0.50;;;;;;;;;;1846341;76;26796;-44
2022/04/20 03:52:39;;;;;;;0.55;0.55;;;;;;;;;;1848009;77;26758;-47
2022/04/20 03:55:07;;;;;;;0.50;0.50;;;;;;;;;;1846980;76;27545;-48
2022/04/20 03:57:35;;;;;;;0.60;0.60;;;;;;;;;;1843936;77;26559;-49
2022/04/20 04:00:03;;;;;;;0.57;0.50;;;;;;;;;;1844889;76;26359;-46
2022/04/20 04:02:31;;;;;;;0.40;0.40;;;;;;;;;;1846992;77;26275;-50
2022/04/20 04:04:58;;;;;;;2.25;0.50;;;;;;;;;;1843684;77;26289;-51
2022/04/20 04:07:25;;;;;;;1.05;0.47;;;;;;;;;;1847855;77;26867;-47
2022/04/20 04:09:52;;;;;;;1.15;0.60;;;;;;;;;;1844069;77;26814;-43
2022/04/20 04:12:24;;;;;;;0.40;0.40;;;;;;;;;;1847250;76;26705;-48
2022/04/20 04:14:51;;;;;;;0.50;0.50;;;;;;;;;;1848121;76;26331;-46
2022/04/20 04:17:19;;;;;;;0.62;0.50;;;;;;;;;;1846545;77;26736;-52
2022/04/20 04:19:46;;;;;;;0.65;0.57;;;;;;;;;;1846357;77;26736;-51
2022/04/20 04:22:14;;;;;;;6.12;0.60;;;;;;;;;;1848750;76;26175;-45
2022/04/20 04:24:42;;;;;;;0.60;0.60;;;;;;;;;;1848207;77;26190;-52
2022/04/20 04:27:10;;;;;;;1.12;0.45;;;;;;;;;;1843832;77;26276;-48
2022/04/20 04:29:40;;;;;;;0.60;0.60;;;;;;;;;;1848420;77;26289;-46
2022/04/20 04:32:08;;;;;;;0.60;0.60;;;;;;;;;;1841766;77;26315;-44
2022/04/20 04:34:35;;;;;;;1.22;0.60;;;;;;;;;;1851833;76;26745;-48
2022/04/20 04:37:03;;;;;;;1.85;0.53;;;;;;;;;;1847011;77;26320;-45
2022/04/20 04:39:30;;;;;;;0.53;0.53;;;;;;;;;;1845266;77;26253;-48
2022/04/20 04:42:00;;;;;;;0.47;0.47;;;;;;;;;;1846861;76;26331;-48
2022/04/20 04:44:26;;;;;;;2.10;0.70;;;;;;;;;;1847376;76;26327;-46
2022/04/20 04:49:40;;;;;;;13.15;0.70;;;;;;;;;;1843747;76;26408;-52
2022/04/20 04:52:11;;;;;;;1.85;0.53;;;;;;;;;;1841719;77;26277;-45
2022/04/20 04:54:37;;;;;;;2.00;0.65;;;;;;;;;;1847249;77;26265;-47
2022/04/20 04:57:04;;;;;;;0.60;0.60;;;;;;;;;;1846911;76;26891;-50
2022/04/20 04:59:32;;;;;;;0.70;0.70;;;;;;;;;;1841216;77;26347;-48
2022/04/20 05:01:59;;;;;;;6.30;0.70;;;;;;;;;;1845173;77;26756;-44
2022/04/20 05:04:27;;;;;;;0.60;0.60;;;;;;;;;;1847804;77;26237;-46
2022/04/20 05:06:54;;;;;;;2.42;0.60;;;;;;;;;;1847174;76;26309;-47
2022/04/20 05:09:21;;;;;;;1.57;0.70;;;;;;;;;;1845635;77;26317;-53
2022/04/20 05:11:52;;;;;;;1.00;0.88;;;;;;;;;;1845811;77;26757;-52
2022/04/20 05:14:19;;;;;;;1.40;0.78;;;;;;;;;;1847751;77;26331;-53
2022/04/20 05:16:46;;;;;;;2.25;0.60;;;;;;;;;;1838901;76;26323;-48
2022/04/20 05:19:14;;;;;;;0.68;0.65;;;;;;;;;;1846020;76;26705;-48
2022/04/20 05:21:41;;;;;;;1.10;0.65;;;;;;;;;;1844836;77;26266;-46
2022/04/20 05:24:08;;;;;;;1.47;0.60;;;;;;;;;;1846337;76;26712;-53
2022/04/20 05:26:35;;;;;;;0.72;0.70;;;;;;;;;;1842204;76;26254;-43
2022/04/20 05:29:03;;;;;;;0.62;0.60;;;;;;;;;;1839581;76;26331;-51
2022/04/20 05:31:30;;;;;;;0.62;0.60;;;;;;;;;;1842200;76;26338;-54
2022/04/20 05:33:57;;;;;;;0.93;0.90;;;;;;;;;;1845409;76;26293;-54
2022/04/20 05:36:25;;;;;;;1.80;0.62;;;;;;;;;;1844523;77;26315;-47
2022/04/20 05:41:40;;;;;;;2.10;0.65;;;;;;;;;;1845427;76;26343;-55
2022/04/20 05:44:08;;;;;;;4.50;0.60;;;;;;;;;;1843140;77;26274;-47
2022/04/20 05:46:37;;;;;;;0.90;0.50;;;;;;;;;;1845913;76;26277;-52
2022/04/20 05:49:04;;;;;;;5.92;0.70;;;;;;;;;;1846134;77;26796;-48
2022/04/20 05:51:32;;;;;;;3.30;0.88;;;;;;;;;;1854224;77;26775;-51
2022/04/20 05:53:59;;;;;;;2.77;0.60;;;;;;;;;;1856212;76;26269;-47
2022/04/20 05:56:27;;;;;;;14.90;1.70;;;;;;;;;;1853446;76;26350;-50
2022/04/20 05:58:54;;;;;;;1.15;0.75;;;;;;;;;;1853837;76;26302;-51
2022/04/20 06:01:26;;;;;;;7.12;0.95;;;;;;;;;;1855473;76;26273;-56
2022/04/20 06:03:51;;;;;;;2.33;0.70;;;;;;;;;;1858102;76;26693;-52
2022/04/20 06:06:18;;;;;;;1.75;0.80;;;;;;;;;;1854777;76;26351;-52
2022/04/20 06:08:47;;;;;;;3.65;0.80;;;;;;;;;;1849524;76;26261;-50
2022/04/20 06:11:14;;;;;;;3.67;0.70;;;;;;;;;;1853303;76;26644;-49
2022/04/20 06:13:42;;;;;;;1.50;0.80;;;;;;;;;;1868383;76;26241;-52
2022/04/20 06:16:10;;;;;;;1.17;0.60;;;;;;;;;;1854395;76;26257;-48
2022/04/20 06:18:38;;;;;;;0.75;0.70;;;;;;;;;;1841328;76;26269;-56
2022/04/20 06:21:05;;;;;;;1.55;0.60;;;;;;;;;;1857660;76;26258;-57
2022/04/20 06:23:33;;;;;;;0.60;0.60;;;;;;;;;;1851877;76;26339;-55
2022/04/20 06:26:01;;;;;;;0.68;0.68;;;;;;;;;;1852320;76;26269;-52
2022/04/20 06:28:29;;;;;;;0.88;0.72;;;;;;;;;;1856404;76;26911;-50
2022/04/20 06:30:56;;;;;;;0.70;0.70;;;;;;;;;;1847356;76;26283;-55
2022/04/20 06:33:24;;;;;;;0.70;0.70;;;;;;;;;;1852061;76;26202;-49
2022/04/20 06:35:52;;;;;;;0.90;0.60;;;;;;;;;;1855203;76;26765;-50
2022/04/20 06:38:20;;;;;;;1.35;0.70;;;;;;;;;;1847459;76;26782;-53
2022/04/20 06:40:48;;;;;;;0.75;0.75;;;;;;;;;;1847471;76;26293;-56
2022/04/20 06:43:15;;;;;;;0.60;0.60;;;;;;;;;;1856148;76;26691;-52
2022/04/20 06:45:44;;;;;;;0.60;0.60;;;;;;;;;;1862281;76;26327;-50
2022/04/20 06:48:11;;;;;;;2.05;0.80;;;;;;;;;;1849661;76;27001;-53
2022/04/20 06:50:42;;;;;;;2.92;0.60;;;;;;;;;;1854217;76;26272;-50
2022/04/20 06:58:41;;;;;;;8.58;0.78;;;;;;;;;;1846400;76;26884;-54
2022/04/20 07:01:09;;;;;;;3.37;0.62;;;;;;;;;;1849843;76;26823;-52
2022/04/20 07:03:37;;;;;;;2.02;0.72;;;;;;;;;;1848154;76;26309;-59
2022/04/20 07:06:05;;;;;;;1.47;1.00;;;;;;;;;;1846492;76;26331;-50
2022/04/20 07:08:33;;;;;;;2.25;0.80;;;;;;;;;;1847641;76;27245;-49
2022/04/20 07:11:01;;;;;;;2.10;0.70;;;;;;;;;;1848769;76;26360;-51
2022/04/20 07:13:28;;;;;;;1.30;0.70;;;;;;;;;;1849890;76;26858;-57
2022/04/20 07:15:55;;;;;;;0.78;0.78;;;;;;;;;;1846463;76;26274;-52
2022/04/20 07:18:23;;;;;;;0.75;0.75;;;;;;;;;;1842365;76;26208;-55
2022/04/20 07:20:51;;;;;;;2.75;0.80;;;;;;;;;;1847242;76;26254;-54
2022/04/20 07:23:18;;;;;;;2.98;0.80;;;;;;;;;;1844200;76;26324;-58
2022/04/20 07:25:46;;;;;;;1.05;0.60;;;;;;;;;;1846814;76;26348;-51
2022/04/20 07:28:13;;;;;;;0.78;0.70;;;;;;;;;;1849329;76;26492;-52
2022/04/20 07:30:40;;;;;;;6.28;0.90;;;;;;;;;;1847476;76;26249;-48
2022/04/20 07:33:07;;;;;;;2.35;1.00;;;;;;;;;;1846046;76;26277;-52
2022/04/20 07:35:35;;;;;;;1.98;0.68;;;;;;;;;;1843298;76;26245;-52
2022/04/20 07:38:02;;;;;;;0.78;0.70;;;;;;;;;;1843382;76;26275;-54
2022/04/20 07:40:31;;;;;;;2.10;0.65;;;;;;;;;;1845829;76;26261;-58
2022/04/20 07:42:58;;;;;;;6.03;0.80;;;;;;;;;;1847067;76;26961;-59
2022/04/20 07:45:26;;;;;;;4.40;0.80;;;;;;;;;;1847768;76;26238;-51
2022/04/20 07:47:54;;;;;;;4.42;1.10;;;;;;;;;;1847833;76;26337;-59
2022/04/20 07:50:24;;;;;;;9.50;1.10;;;;;;;;;;1845363;76;26211;-55
2022/04/20 07:52:52;;;;;;;13.48;1.22;;;;;;;;;;1849879;76;26347;-53
2022/04/20 07:55:21;;;;;;;4.37;1.32;;;;;;;;;;1846397;76;26320;-58
2022/04/20 07:57:50;;;;;;;15.55;1.47;;;;;;;;;;1850343;76;26312;-54
2022/04/20 08:00:17;;;;;;;7.20;1.25;;;;;;;;;;1846527;76;26315;-53
2022/04/20 08:02:46;;;;;;;10.45;1.52;;;;;;;;;;1843622;76;26277;-52
2022/04/20 08:05:14;;;;;;;6.75;1.00;;;;;;;;;;1848388;76;26689;-57
2022/04/20 08:07:43;;;;;;;9.98;1.42;;;;;;;;;;1846137;76;26270;-52
2022/04/20 08:10:11;;;;;;;5.20;0.90;;;;;;;;;;1848630;76;26660;-51
2022/04/20 08:12:40;;;;;;;4.55;1.17;;;;;;;;;;1853574;76;26658;-54
2022/04/20 08:15:08;;;;;;;11.93;1.10;;;;;;;;;;1847016;76;26396;-44
2022/04/20 08:17:35;;;;;;;4.92;1.20;;;;;;;;;;1848640;76;26253;-48
2022/04/20 08:20:04;;;;;;;4.33;1.45;;;;;;;;;;1848455;76;26339;-51
2022/04/20 08:22:32;;;;;;;4.97;1.00;;;;;;;;;;1844085;77;26261;-45
2022/04/20 08:25:02;;;;;;;7.10;1.30;;;;;;;;;;1841481;76;26406;-46
2022/04/20 08:27:29;;;;;;;4.15;0.82;;;;;;;;;;1850519;76;26732;-45
2022/04/20 08:29:57;;;;;;;6.17;1.00;;;;;;;;;;1848759;76;26331;-46
2022/04/20 08:32:24;;;;;;;6.05;1.02;;;;;;;;;;1840891;76;26298;-56
2022/04/20 08:34:52;;;;;;;7.28;1.00;;;;;;;;;;1846979;76;26277;-48
2022/04/20 08:37:19;;;;;;;3.47;0.90;;;;;;;;;;1846836;76;26339;-52
2022/04/20 08:39:46;;;;;;;4.50;0.75;;;;;;;;;;1846546;76;26331;-51
2022/04/20 08:42:15;;;;;;;2.20;1.00;;;;;;;;;;1846645;76;26302;-52
2022/04/20 08:44:47;;;;;;;28.65;1.70;;;;;;;;;;1848135;76;26257;-46
2022/04/20 08:47:21;;;;;;;3.83;0.90;;;;;;;;;;1843644;76;27219;-44
2022/04/20 08:49:49;;;;;;;2.87;0.90;;;;;;;;;;1854770;76;26316;-54
2022/04/20 08:55:11;;;;;;;2.33;0.65;;;;;;;;;;1841552;76;26395;-44
2022/04/20 08:57:39;;;;;;;4.35;0.80;;;;;;;;;;1850286;76;26632;-52
2022/04/20 09:00:09;;;;;;;1.47;0.53;;;;;;;;;;1801348;77;26266;-53
2022/04/20 09:02:36;;;;;;;1.07;0.60;;;;;;;;;;1795899;79;26279;-56
2022/04/20 09:05:05;;;;;;;2.80;0.90;;;;;;;;;;1794839;78;26770;-55
2022/04/20 09:07:32;;;;;;;2.10;0.70;;;;;;;;;;1800989;78;26616;-54
2022/04/20 09:10:03;;;;;;;1.95;0.90;;;;;;;;;;1801901;78;26756;-52
2022/04/20 09:12:30;;;;;;;2.08;1.00;;;;;;;;;;1795253;78;26331;-56
2022/04/20 09:15:00;;;;;;;2.17;1.30;;;;;;;;;;1794955;78;26345;-56
2022/04/20 09:17:29;;;;;;;6.87;1.77;;;;;;;;;;1795206;79;26303;-51
2022/04/20 09:19:57;;;;;;;5.75;2.20;;;;;;;;;;1793368;79;26363;-53
2022/04/20 09:22:25;;;;;;;4.67;2.30;;;;;;;;;;1800500;78;26335;-45
2022/04/20 09:25:00;;;;;;;5.97;2.08;;;;;;;;;;1803722;77;26278;-45
2022/04/20 09:27:28;;;;;;;8.15;1.90;;;;;;;;;;1788395;79;26291;-49
2022/04/20 09:29:56;;;;;;;4.00;1.72;;;;;;;;;;1802559;79;26300;-52
2022/04/20 09:32:33;;;;;;;3.33;1.82;;;;;;;;;;1793826;78;26292;-45
2022/04/20 09:35:03;;;;;;;4.45;2.00;;;;;;;;;;1801621;78;26283;-50
2022/04/20 09:37:31;;;;;;;1.60;1.50;;;;;;;;;;1801280;79;26299;-48
2022/04/20 09:39:58;;;;;;;2.67;1.60;;;;;;;;;;1839921;76;27765;-52
2022/04/20 09:42:25;;;;;;;3.60;1.70;;;;;;;;;;1847172;76;26280;-53
2022/04/20 09:44:54;;;;;;;3.95;1.50;;;;;;;;;;1840372;76;26273;-48
2022/04/20 09:50:10;;;;;;;1.98;1.30;;;;;;;;;;1851917;75;26366;-47
2022/04/20 09:52:42;;;;;;;2.95;1.35;;;;;;;;;;1862985;76;26846;-50
2022/04/20 09:55:13;;;;;;;3.20;1.70;;;;;;;;;;1868680;75;26745;-49
2022/04/20 09:57:41;;;;;;;2.12;1.42;;;;;;;;;;1865176;75;26255;-55
2022/04/20 10:00:12;;;;;;;4.70;1.32;;;;;;;;;;1860567;76;26435;-52
2022/04/20 10:02:47;;;;;;;4.33;1.27;;;;;;;;;;1869715;75;26253;-52
2022/04/20 10:05:18;;;;;;;2.90;1.57;;;;;;;;;;1865336;75;25768;-52
2022/04/20 10:07:45;;;;;;;1.45;1.25;;;;;;;;;;1862918;75;26272;-48
2022/04/20 10:10:13;;;;;;;1.72;1.40;;;;;;;;;;1863304;75;26332;-44
2022/04/20 10:12:41;;;;;;;1.77;1.30;;;;;;;;;;1863082;76;26310;-46
2022/04/20 10:17:56;;;;;;;1.10;1.10;;;;;;;;;;1864460;75;26281;-48
2022/04/20 10:20:26;;;;;;;1.32;1.22;;;;;;;;;;1861088;76;26237;-47
2022/04/20 10:22:54;;;;;;;1.30;1.20;;;;;;;;;;1862388;75;26681;-53
2022/04/20 10:25:22;;;;;;;3.45;1.07;;;;;;;;;;1863238;76;26310;-50
2022/04/20 10:28:03;;;;;;;1.10;1.00;;;;;;;;;;1862592;77;26326;-51
2022/04/20 10:30:39;;;;;;;1.98;1.10;;;;;;;;;;1860033;75;26433;-49
2022/04/20 10:33:08;;;;;;;1.50;1.20;;;;;;;;;;1852921;76;26496;-54
2022/04/20 10:35:37;;;;;;;4.15;1.30;;;;;;;;;;1855952;75;26311;-53
2022/04/20 10:38:08;;;;;;;1.85;1.25;;;;;;;;;;1860978;75;26253;-48
2022/04/20 10:40:37;;;;;;;1.27;1.05;;;;;;;;;;1858563;76;26250;-49
2022/04/20 10:43:20;;;;;;;1.12;1.00;;;;;;;;;;1876477;75;26313;-48
2022/04/20 10:45:58;;;;;;;4.37;1.10;;;;;;;;;;1856404;76;26260;-52
2022/04/20 10:48:25;;;;;;;1.00;1.00;;;;;;;;;;1854003;75;27259;-51
2022/04/20 10:51:12;;;;;;;1.12;1.02;;;;;;;;;;1850448;75;26309;-49
2022/04/20 10:53:41;;;;;;;1.10;1.10;;;;;;;;;;1848537;76;26257;-48
2022/04/20 10:56:08;;;;;;;2.20;0.88;;;;;;;;;;1843077;76;26341;-51
2022/04/20 10:58:36;;;;;;;1.10;1.00;;;;;;;;;;1842852;76;26344;-49
2022/04/20 11:01:07;;;;;;;1.00;1.00;;;;;;;;;;1848256;76;26249;-47
2022/04/20 11:03:53;;;;;;;1.05;1.05;;;;;;;;;;1851179;76;26344;-48
2022/04/20 11:06:21;;;;;;;3.60;1.10;;;;;;;;;;1838517;76;26333;-48
2022/04/20 11:08:51;;;;;;;2.58;1.10;;;;;;;;;;1848257;76;26269;-52
2022/04/20 11:19:54;;;;;;;1.00;0.90;;;;;;;;;;1848496;76;26290;-51
2022/04/20 11:22:22;;;;;;;1.00;1.00;;;;;;;;;;1848344;76;26302;-49
2022/04/20 11:24:51;;;;;;;0.80;0.80;;;;;;;;;;1843014;76;26285;-54
2022/04/20 11:27:18;;;;;;;1.30;0.90;;;;;;;;;;1852401;76;26815;-52
2022/04/20 11:29:47;;;;;;;0.90;0.90;;;;;;;;;;1846844;76;26286;-55
2022/04/20 11:32:15;;;;;;;0.90;0.90;;;;;;;;;;1842228;76;26769;-53
2022/04/20 11:34:42;;;;;;;0.90;0.90;;;;;;;;;;1843855;77;26264;-50
2022/04/20 11:37:12;;;;;;;0.88;0.88;;;;;;;;;;1845378;76;26247;-54
2022/04/20 11:39:39;;;;;;;2.65;1.00;;;;;;;;;;1846526;76;26277;-53
2022/04/20 11:42:07;;;;;;;1.12;1.00;;;;;;;;;;1846862;76;26863;-51
2022/04/20 11:44:36;;;;;;;0.90;0.90;;;;;;;;;;1844460;76;26249;-49
2022/04/20 11:47:05;;;;;;;1.45;1.10;;;;;;;;;;1844629;76;26329;-54
2022/04/20 11:49:38;;;;;;;1.05;0.90;;;;;;;;;;1846115;76;27511;-51
2022/04/20 11:52:11;;;;;;;1.95;0.90;;;;;;;;;;1846925;76;26761;-48
2022/04/20 11:54:39;;;;;;;1.00;1.00;;;;;;;;;;1841419;76;26335;-50
2022/04/20 11:57:07;;;;;;;0.95;0.80;;;;;;;;;;1836253;76;26358;-48
2022/04/20 11:59:36;;;;;;;0.90;0.90;;;;;;;;;;1838907;76;26383;-47
2022/04/20 12:02:04;;;;;;;1.00;1.00;;;;;;;;;;1842564;76;26750;-47
2022/04/20 12:04:32;;;;;;;0.85;0.85;;;;;;;;;;1838560;76;26309;-48
2022/04/20 12:07:00;;;;;;;2.77;1.25;;;;;;;;;;1847048;76;26335;-51
2022/04/20 12:09:32;;;;;;;1.85;0.90;;;;;;;;;;1846375;76;27262;-48
2022/04/20 12:12:03;;;;;;;2.47;0.98;;;;;;;;;;1847739;76;26249;-51
2022/04/20 12:14:32;;;;;;;1.47;0.98;;;;;;;;;;1846061;76;26183;-53
2022/04/20 12:17:05;;;;;;;0.90;0.90;;;;;;;;;;1842928;76;26696;-47
2022/04/20 12:19:33;;;;;;;2.05;1.20;;;;;;;;;;1836069;76;26257;-46
2022/04/20 12:22:05;;;;;;;0.80;0.80;;;;;;;;;;1845836;76;26256;-51
2022/04/20 12:24:32;;;;;;;1.00;1.00;;;;;;;;;;1849159;76;26735;-48
2022/04/20 12:27:00;;;;;;;1.17;1.02;;;;;;;;;;1850421;76;26284;-48
2022/04/20 12:29:31;;;;;;;0.78;0.75;;;;;;;;;;1852840;76;26291;-47
2022/04/20 12:31:59;;;;;;;0.90;0.90;;;;;;;;;;1847241;76;26293;-49
2022/04/20 12:34:28;;;;;;;1.15;1.15;;;;;;;;;;1846897;76;26300;-44
2022/04/20 12:36:59;;;;;;;1.70;0.95;;;;;;;;;;1848286;76;26277;-47
2022/04/20 12:39:31;;;;;;;0.90;0.90;;;;;;;;;;1845026;76;26710;-46
2022/04/20 12:42:09;;;;;;;0.98;0.98;;;;;;;;;;1848488;76;26939;-48
2022/04/20 12:44:38;;;;;;;0.90;0.90;;;;;;;;;;1846108;76;26309;-44
2022/04/20 12:47:16;;;;;;;3.20;1.10;;;;;;;;;;1846950;76;26831;-40
2022/04/20 12:49:45;;;;;;;1.15;1.10;;;;;;;;;;1846622;76;26773;-44
2022/04/20 12:52:14;;;;;;;2.80;1.00;;;;;;;;;;1849724;76;26332;-45
2022/04/20 12:54:43;;;;;;;2.55;1.00;;;;;;;;;;1856445;76;26323;-51
2022/04/20 13:03:05;;;;;;;2.10;0.93;;;;;;;;;;1853566;76;26289;-44
2022/04/20 13:05:33;;;;;;;0.95;0.95;;;;;;;;;;1844838;76;26237;-45
2022/04/20 13:08:00;;;;;;;2.15;1.00;;;;;;;;;;1854693;76;27131;-48
2022/04/20 13:10:29;;;;;;;1.00;1.00;;;;;;;;;;1854205;76;26510;-47
2022/04/20 13:12:57;;;;;;;1.10;1.00;;;;;;;;;;1859208;76;26796;-50
2022/04/20 13:15:25;;;;;;;1.10;1.10;;;;;;;;;;1853393;76;26343;-49
2022/04/20 13:17:53;;;;;;;1.10;1.10;;;;;;;;;;1855803;76;26293;-46
2022/04/20 13:20:23;;;;;;;0.93;0.93;;;;;;;;;;1862724;76;26330;-49
2022/04/20 13:22:50;;;;;;;1.15;1.10;;;;;;;;;;1858737;76;26818;-42
2022/04/20 13:28:03;;;;;;;1.07;1.07;;;;;;;;;;1858767;76;26367;-52
2022/04/20 13:30:38;;;;;;;1.95;1.00;;;;;;;;;;1854411;76;26249;-47
2022/04/20 13:33:12;;;;;;;1.20;1.10;;;;;;;;;;1855269;76;26666;-47
2022/04/20 13:35:43;;;;;;;1.07;1.00;;;;;;;;;;1857904;76;26799;-52
2022/04/20 13:38:11;;;;;;;1.00;1.00;;;;;;;;;;1862098;76;26352;-47
2022/04/20 13:40:39;;;;;;;1.00;1.00;;;;;;;;;;1862039;76;27163;-49
2022/04/20 13:43:07;;;;;;;1.10;1.00;;;;;;;;;;1855200;76;26278;-47
2022/04/20 13:45:35;;;;;;;1.47;1.00;;;;;;;;;;1853514;76;27806;-46
2022/04/20 13:48:03;;;;;;;1.00;1.00;;;;;;;;;;1862610;76;27486;-47
2022/04/20 13:50:31;;;;;;;2.25;1.00;;;;;;;;;;1857992;76;26268;-46
2022/04/20 13:52:59;;;;;;;1.00;1.00;;;;;;;;;;1848335;75;26273;-45
2022/04/20 13:55:27;;;;;;;3.25;1.00;;;;;;;;;;1844026;76;26270;-47
2022/04/20 13:57:54;;;;;;;2.50;0.90;;;;;;;;;;1847858;77;26214;-46
2022/04/20 14:00:22;;;;;;;2.15;0.90;;;;;;;;;;1845425;77;26774;-45
2022/04/20 14:02:49;;;;;;;2.58;0.90;;;;;;;;;;1847681;77;26697;-40
2022/04/20 14:05:17;;;;;;;1.00;1.00;;;;;;;;;;1847809;77;26250;-49
2022/04/20 14:07:44;;;;;;;1.00;1.00;;;;;;;;;;1851053;76;26348;-49
2022/04/20 14:10:11;;;;;;;2.10;0.90;;;;;;;;;;1847680;77;26414;-48
2022/04/20 14:12:39;;;;;;;2.02;0.90;;;;;;;;;;1847945;77;26245;-48
2022/04/20 14:15:07;;;;;;;0.90;0.90;;;;;;;;;;1847848;76;26242;-51
2022/04/20 14:17:35;;;;;;;1.55;0.90;;;;;;;;;;1844449;76;26261;-48
2022/04/20 14:20:04;;;;;;;0.80;0.80;;;;;;;;;;1831455;77;26258;-49
2022/04/20 14:22:32;;;;;;;0.80;0.80;;;;;;;;;;1848480;77;26285;-49
2022/04/20 14:33:16;;;;;;;0.80;0.80;;;;;;;;;;1844974;76;26693;-48
2022/04/20 14:35:43;;;;;;;3.83;0.88;;;;;;;;;;1848120;76;26362;-49
2022/04/20 14:38:10;;;;;;;0.80;0.80;;;;;;;;;;1849300;76;26245;-45
2022/04/20 14:40:38;;;;;;;0.82;0.82;;;;;;;;;;1852252;76;26247;-46
2022/04/20 14:43:06;;;;;;;0.80;0.80;;;;;;;;;;1841956;76;26328;-46
2022/04/20 14:45:33;;;;;;;0.90;0.90;;;;;;;;;;1844636;76;26291;-44
2022/04/20 14:48:01;;;;;;;0.80;0.80;;;;;;;;;;1828704;76;26315;-48
2022/04/20 14:50:28;;;;;;;1.20;1.10;;;;;;;;;;1840350;77;26854;-47
2022/04/20 14:52:56;;;;;;;0.90;0.90;;;;;;;;;;1858303;76;26316;-46
2022/04/20 14:55:23;;;;;;;0.90;0.90;;;;;;;;;;1853621;77;26641;-46
2022/04/20 14:57:51;;;;;;;1.30;0.82;;;;;;;;;;1861500;77;26330;-47
2022/04/20 15:00:19;;;;;;;0.80;0.80;;;;;;;;;;1856194;77;27319;-44
2022/04/20 15:02:50;;;;;;;0.95;0.95;;;;;;;;;;1863419;75;26261;-47
2022/04/20 15:05:15;;;;;;;1.10;0.90;;;;;;;;;;1862740;76;26328;-45
2022/04/20 15:07:44;;;;;;;0.98;0.98;;;;;;;;;;1857481;77;26284;-46
2022/04/20 15:10:12;;;;;;;0.80;0.80;;;;;;;;;;1863075;76;26316;-45
2022/04/20 15:12:41;;;;;;;0.90;0.90;;;;;;;;;;1862941;76;27207;-46
2022/04/20 15:15:09;;;;;;;0.80;0.80;;;;;;;;;;1855549;76;26236;-51
2022/04/20 15:17:37;;;;;;;2.37;0.80;;;;;;;;;;1852741;77;26253;-48
2022/04/20 15:20:04;;;;;;;1.00;0.90;;;;;;;;;;1856259;76;26666;-48
2022/04/20 15:22:32;;;;;;;0.90;0.90;;;;;;;;;;1861078;77;26301;-49
2022/04/20 15:24:59;;;;;;;1.32;1.00;;;;;;;;;;1858483;75;26617;-45
2022/04/20 15:27:27;;;;;;;0.80;0.80;;;;;;;;;;1849822;77;26731;-45
2022/04/20 15:29:54;;;;;;;0.88;0.88;;;;;;;;;;1859354;77;26388;-49
2022/04/20 15:32:22;;;;;;;1.07;1.07;;;;;;;;;;1859788;77;26871;-47
2022/04/20 15:34:49;;;;;;;2.37;1.00;;;;;;;;;;1855578;76;26744;-46
2022/04/20 15:37:18;;;;;;;0.70;0.70;;;;;;;;;;1864975;75;26758;-45